Time;durP1;ratioP1;P1;durP2;ratioP2;P2;SDS_P1;SDS_P2;PMS_P1;PMS_P2;Temp;Humidity;BMP_temperature;BMP_pressure;BME280_temperature;BME280_humidity;BME280_pressure;Samples;Min_cycle;Max_cycle;Signal;HPM_P1;HPM_P2
2021/01/26 00:00:49;;;;;;;2.40;1.23;;;7.70;99.90;;;;;;4978979;28;20189;-47
2021/01/26 00:03:19;;;;;;;2.83;0.90;;;7.80;99.90;;;;;;4980663;28;20211;-46
2021/01/26 00:05:49;;;;;;;1.30;1.20;;;7.70;99.90;;;;;;4980684;28;20208;-42
2021/01/26 00:08:21;;;;;;;1.95;1.05;;;7.60;99.90;;;;;;4974604;28;20224;-44
2021/01/26 00:10:52;;;;;;;1.40;1.30;;;7.70;99.90;;;;;;4979678;28;20232;-44
2021/01/26 00:13:23;;;;;;;1.75;1.65;;;7.60;99.90;;;;;;4982612;28;20200;-43
2021/01/26 00:15:53;;;;;;;1.63;1.30;;;7.60;99.90;;;;;;4979297;28;20204;-47
2021/01/26 00:18:23;;;;;;;1.13;1.05;;;7.60;99.90;;;;;;4974910;28;20268;-43
2021/01/26 00:20:53;;;;;;;1.30;1.10;;;7.60;99.90;;;;;;4971328;28;20236;-45
2021/01/26 00:23:25;;;;;;;1.80;1.70;;;7.60;99.90;;;;;;4979384;28;20204;-47
2021/01/26 00:25:55;;;;;;;0.93;0.90;;;7.70;99.90;;;;;;4978437;28;20214;-48
2021/01/26 00:28:25;;;;;;;2.83;1.50;;;7.70;99.90;;;;;;4976031;28;20322;-44
2021/01/26 00:30:56;;;;;;;2.22;1.63;;;7.90;99.90;;;;;;4982147;28;20236;-45
2021/01/26 00:33:26;;;;;;;3.05;1.95;;;8.00;99.90;;;;;;4981631;28;20209;-47
2021/01/26 00:35:56;;;;;;;5.82;3.58;;;7.90;99.90;;;;;;4981620;28;20200;-47
2021/01/26 00:38:28;;;;;;;4.47;4.03;;;7.80;99.90;;;;;;4977966;28;20213;-47
2021/01/26 00:40:58;;;;;;;3.70;3.40;;;7.80;99.90;;;;;;4979107;28;20232;-46
2021/01/26 00:43:29;;;;;;;4.80;4.40;;;7.70;99.90;;;;;;4979805;28;20193;-46
2021/01/26 00:45:59;;;;;;;4.65;3.90;;;7.70;99.90;;;;;;4982297;28;20197;-43
2021/01/26 00:48:29;;;;;;;3.83;3.42;;;7.60;99.90;;;;;;4982184;28;20211;-49
2021/01/26 00:50:59;;;;;;;3.95;3.45;;;7.60;99.90;;;;;;4980371;28;20201;-47
2021/01/26 00:53:31;;;;;;;4.00;3.70;;;7.60;99.90;;;;;;4980612;28;20208;-45
2021/01/26 00:56:01;;;;;;;4.88;3.70;;;7.60;99.90;;;;;;4978778;28;20185;-47
2021/01/26 00:58:31;;;;;;;4.30;3.90;;;7.40;99.90;;;;;;4980539;28;20208;-47
2021/01/26 01:01:01;;;;;;;5.00;4.50;;;7.30;99.90;;;;;;4978036;28;20200;-43
2021/01/26 01:03:31;;;;;;;5.30;4.90;;;7.20;99.90;;;;;;4975517;28;20295;-46
2021/01/26 01:06:01;;;;;;;4.88;4.47;;;7.10;99.90;;;;;;4980999;28;20243;-47
2021/01/26 01:08:32;;;;;;;4.63;4.22;;;7.10;99.90;;;;;;4979285;28;20196;-48
2021/01/26 01:11:03;;;;;;;4.15;3.75;;;7.20;99.90;;;;;;4980659;28;20201;-48
2021/01/26 01:13:34;;;;;;;4.57;3.95;;;7.20;99.90;;;;;;4978972;28;20228;-46
2021/01/26 01:16:05;;;;;;;5.07;4.68;;;7.30;99.90;;;;;;4981530;28;20531;-45
2021/01/26 01:18:35;;;;;;;4.18;3.78;;;7.20;99.90;;;;;;4979737;28;20220;-46
2021/01/26 01:21:05;;;;;;;5.25;4.35;;;7.20;99.90;;;;;;4981777;28;20204;-47
2021/01/26 01:23:37;;;;;;;3.92;3.63;;;7.10;99.90;;;;;;4983234;28;20204;-44
2021/01/26 01:26:07;;;;;;;4.00;3.70;;;7.00;99.90;;;;;;4982370;28;20201;-47
2021/01/26 01:28:37;;;;;;;4.80;4.30;;;6.90;99.90;;;;;;4980042;28;20569;-45
2021/01/26 01:31:07;;;;;;;4.30;3.90;;;6.90;99.90;;;;;;4975695;28;20255;-47
2021/01/26 01:33:37;;;;;;;5.13;4.63;;;6.90;99.90;;;;;;4977785;28;20271;-43
2021/01/26 01:36:08;;;;;;;4.60;4.30;;;6.90;99.90;;;;;;4978371;28;20288;-45
2021/01/26 01:38:39;;;;;;;6.25;3.95;;;6.80;99.90;;;;;;4979665;28;20189;-46
2021/01/26 01:41:10;;;;;;;7.05;4.03;;;6.80;99.90;;;;;;4980944;28;20608;-45
2021/01/26 01:43:40;;;;;;;4.63;4.22;;;6.80;99.90;;;;;;4981556;28;20632;-46
2021/01/26 01:46:17;;;;;;;4.47;3.40;;;7.00;99.90;;;;;;4980910;28;20208;-45
2021/01/26 01:48:49;;;;;;;4.63;4.22;;;6.90;99.90;;;;;;4978344;28;20268;-43
2021/01/26 01:51:24;;;;;;;3.90;3.60;;;6.80;99.90;;;;;;4982466;28;20212;-43
2021/01/26 01:53:58;;;;;;;4.40;4.10;;;6.70;99.90;;;;;;4980427;28;20200;-43
2021/01/26 01:56:36;;;;;;;4.28;3.50;;;6.70;99.90;;;;;;4983807;28;20303;-44
2021/01/26 01:59:11;;;;;;;3.45;3.25;;;6.60;99.90;;;;;;4986533;28;20655;-43
2021/01/26 02:01:41;;;;;;;3.63;3.38;;;6.60;99.90;;;;;;4984531;28;20216;-44
2021/01/26 02:04:14;;;;;;;3.17;2.97;;;6.40;99.90;;;;;;4983605;28;20232;-46
2021/01/26 02:06:46;;;;;;;3.58;3.28;;;6.30;99.90;;;;;;4983239;28;20651;-45
2021/01/26 02:09:20;;;;;;;3.35;3.15;;;6.10;99.90;;;;;;4985850;28;20271;-45
2021/01/26 02:11:51;;;;;;;4.30;3.38;;;5.90;99.90;;;;;;4981437;28;20287;-47
2021/01/26 02:14:21;;;;;;;5.97;4.25;;;5.80;99.90;;;;;;4985907;28;20212;-44
2021/01/26 02:17:18;;;;;;;4.80;3.50;;;5.70;99.90;;;;;;4982534;28;20223;-43
2021/01/26 02:20:24;;;;;;;4.30;4.00;;;5.70;99.90;;;;;;4984835;28;20223;-43
2021/01/26 02:23:42;;;;;;;6.20;5.07;;;5.60;99.90;;;;;;4981890;28;20248;-44
2021/01/26 02:27:03;;;;;;;4.93;4.53;;;5.60;99.90;;;;;;4983938;28;20224;-49
2021/01/26 02:29:52;;;;;;;37.30;11.55;;;5.60;99.90;;;;;;4984748;28;20228;-48
2021/01/26 02:32:31;;;;;;;6.63;6.03;;;5.70;99.90;;;;;;4980962;28;20611;-43
2021/01/26 02:35:21;;;;;;;8.35;7.47;;;5.70;99.90;;;;;;4983501;28;20236;-45
2021/01/26 02:38:17;;;;;;;7.25;6.55;;;5.80;99.90;;;;;;4981367;28;20259;-46
2021/01/26 02:40:54;;;;;;;8.85;7.95;;;5.80;99.90;;;;;;4982362;28;20211;-45
2021/01/26 02:43:43;;;;;;;11.98;8.40;;;5.80;99.90;;;;;;4959900;28;20208;-44
2021/01/26 02:46:20;;;;;;;7.50;6.78;;;5.90;99.90;;;;;;4968798;28;20283;-44
2021/01/26 02:49:13;;;;;;;8.35;7.65;;;5.90;99.90;;;;;;4983760;28;20189;-44
2021/01/26 02:51:53;;;;;;;13.65;7.88;;;5.90;99.90;;;;;;4983276;28;20253;-45
2021/01/26 02:54:30;;;;;;;7.68;6.90;;;5.90;99.90;;;;;;4984418;28;20200;-44
2021/01/26 02:57:09;;;;;;;7.35;6.70;;;6.00;99.90;;;;;;4983367;28;20267;-43
2021/01/26 02:59:47;;;;;;;6.97;6.20;;;6.00;99.90;;;;;;4980695;28;20201;-43
2021/01/26 03:02:23;;;;;;;10.55;9.55;;;6.10;99.90;;;;;;4982456;28;20196;-47
2021/01/26 03:05:02;;;;;;;8.93;8.13;;;6.20;99.90;;;;;;4981642;28;20296;-51
2021/01/26 03:07:36;;;;;;;41.10;15.73;;;6.30;99.90;;;;;;4982503;28;20277;-47
2021/01/26 03:10:10;;;;;;;8.85;7.53;;;6.30;99.90;;;;;;4984062;28;20259;-42
2021/01/26 03:12:47;;;;;;;7.25;6.65;;;6.20;99.90;;;;;;4983539;28;20255;-42
2021/01/26 03:15:21;;;;;;;6.70;5.90;;;6.10;99.90;;;;;;4980271;28;20208;-46
2021/01/26 03:17:54;;;;;;;7.05;6.35;;;6.00;99.90;;;;;;4979368;28;20204;-44
2021/01/26 03:20:27;;;;;;;6.57;5.70;;;5.90;99.90;;;;;;4981804;28;20688;-43
2021/01/26 03:23:02;;;;;;;6.97;6.25;;;5.90;99.90;;;;;;4981489;28;20209;-43
2021/01/26 03:25:32;;;;;;;6.07;5.57;;;6.00;99.90;;;;;;4982802;28;20200;-43
2021/01/26 03:28:07;;;;;;;7.28;5.90;;;5.90;99.90;;;;;;4979700;28;20204;-42
2021/01/26 03:30:38;;;;;;;7.35;5.40;;;5.90;99.90;;;;;;4982985;28;20235;-46
2021/01/26 03:33:12;;;;;;;5.97;5.35;;;5.80;99.90;;;;;;4981696;28;20539;-43
2021/01/26 03:35:44;;;;;;;6.82;5.88;;;5.90;99.90;;;;;;4980620;28;20343;-44
2021/01/26 03:38:18;;;;;;;5.80;5.30;;;5.90;99.90;;;;;;4980415;28;20271;-44
2021/01/26 03:40:51;;;;;;;7.32;6.65;;;6.00;99.90;;;;;;4974714;28;20220;-43
2021/01/26 03:43:24;;;;;;;30.08;9.68;;;6.00;99.90;;;;;;4980411;28;20267;-44
2021/01/26 03:46:00;;;;;;;426.10;74.15;;;5.90;99.90;;;;;;4977954;28;20264;-44
2021/01/26 03:48:44;;;;;;;8.20;7.35;;;5.90;99.90;;;;;;4979045;28;20204;-44
2021/01/26 03:51:27;;;;;;;8.20;7.07;;;6.00;99.90;;;;;;4978829;28;20584;-43
2021/01/26 03:54:25;;;;;;;7.32;6.72;;;5.90;99.90;;;;;;4980427;28;20216;-45
2021/01/26 03:57:27;;;;;;;10.15;9.10;;;5.90;99.90;;;;;;4980195;28;20196;-43
2021/01/26 04:00:10;;;;;;;9.45;8.55;;;5.90;99.90;;;;;;4958495;28;20228;-47
2021/01/26 04:03:16;;;;;;;10.70;8.30;;;6.00;99.90;;;;;;4982178;28;20219;-42
2021/01/26 04:05:54;;;;;;;8.68;7.90;;;5.90;99.90;;;;;;4980494;28;20276;-45
2021/01/26 04:08:33;;;;;;;8.68;7.97;;;5.80;99.90;;;;;;4978729;28;20200;-44
2021/01/26 04:11:09;;;;;;;8.48;7.63;;;5.90;99.90;;;;;;4980432;28;20267;-44
2021/01/26 04:13:49;;;;;;;7.90;7.20;;;5.90;99.90;;;;;;4979759;28;20236;-43
2021/01/26 04:16:23;;;;;;;8.15;7.07;;;5.90;99.90;;;;;;4981149;28;20206;-44
2021/01/26 04:18:54;;;;;;;8.23;7.43;;;5.90;99.90;;;;;;4981827;28;20577;-43
2021/01/26 04:21:24;;;;;;;8.00;7.15;;;5.90;99.90;;;;;;4979967;28;20201;-44
2021/01/26 04:23:58;;;;;;;8.80;8.00;;;6.10;99.90;;;;;;4981924;28;20216;-45
2021/01/26 04:26:32;;;;;;;7.78;6.97;;;5.90;99.90;;;;;;4981715;28;20228;-44
2021/01/26 04:29:02;;;;;;;8.20;7.50;;;5.80;99.90;;;;;;4980492;28;20209;-45
2021/01/26 04:31:34;;;;;;;7.70;7.00;;;5.70;99.90;;;;;;4977366;28;20220;-44
2021/01/26 04:34:05;;;;;;;7.85;7.15;;;5.80;99.90;;;;;;4970419;28;20224;-45
2021/01/26 04:36:35;;;;;;;8.75;7.93;;;5.90;99.90;;;;;;4982880;28;20200;-46
2021/01/26 04:39:06;;;;;;;8.35;7.60;;;5.80;99.90;;;;;;4976979;28;20213;-45
2021/01/26 04:41:42;;;;;;;7.63;6.60;;;5.70;99.90;;;;;;4978930;28;20205;-42
2021/01/26 04:44:51;;;;;;;8.15;7.40;;;5.60;99.90;;;;;;4980053;28;20255;-43
2021/01/26 04:47:26;;;;;;;9.52;8.30;;;5.60;99.90;;;;;;4918959;29;20289;-44
2021/01/26 04:50:06;;;;;;;8.32;7.63;;;5.60;99.90;;;;;;4920796;29;20237;-46
2021/01/26 04:52:57;;;;;;;8.40;7.70;;;5.60;99.90;;;;;;4921676;29;20332;-43
2021/01/26 04:55:34;;;;;;;8.73;7.45;;;5.30;99.90;;;;;;4922216;29;20214;-44
2021/01/26 04:58:23;;;;;;;10.63;9.18;;;5.10;99.90;;;;;;4921455;29;20210;-42
2021/01/26 05:01:02;;;;;;;11.10;8.25;;;4.90;99.90;;;;;;4911931;29;20276;-43
2021/01/26 05:03:44;;;;;;;8.90;8.10;;;4.80;99.90;;;;;;4919462;29;20205;-45
2021/01/26 05:06:18;;;;;;;9.10;8.40;;;4.70;99.90;;;;;;4919600;29;20286;-43
2021/01/26 05:08:52;;;;;;;10.23;9.23;;;4.60;99.90;;;;;;4920100;29;20248;-43
2021/01/26 05:11:27;;;;;;;11.60;10.40;;;4.60;99.90;;;;;;4920445;29;20274;-42
2021/01/26 05:14:02;;;;;;;11.68;10.38;;;4.60;99.90;;;;;;4919606;29;20562;-42
2021/01/26 05:16:37;;;;;;;10.93;9.93;;;4.60;99.90;;;;;;4920698;29;20218;-45
2021/01/26 05:19:17;;;;;;;12.82;10.27;;;4.60;99.90;;;;;;4919196;29;20210;-43
2021/01/26 05:21:52;;;;;;;13.27;11.88;;;4.60;99.90;;;;;;4924975;28;20234;-46
2021/01/26 05:24:32;;;;;;;14.93;11.90;;;4.70;99.90;;;;;;4979118;28;20200;-44
2021/01/26 05:27:03;;;;;;;14.02;12.70;;;4.80;99.90;;;;;;4980512;28;20208;-44
2021/01/26 05:29:34;;;;;;;13.73;12.45;;;4.80;99.90;;;;;;4982881;28;20264;-43
2021/01/26 05:32:07;;;;;;;13.45;11.82;;;4.80;99.90;;;;;;4979138;28;20291;-48
2021/01/26 05:34:42;;;;;;;13.45;12.15;;;4.80;99.90;;;;;;4982263;28;20276;-45
2021/01/26 05:37:15;;;;;;;16.40;14.75;;;4.80;99.90;;;;;;4979998;28;20208;-46
2021/01/26 05:39:52;;;;;;;16.35;14.63;;;4.90;99.90;;;;;;4983842;28;20205;-44
2021/01/26 05:42:24;;;;;;;17.30;15.60;;;5.00;99.90;;;;;;4983382;28;20196;-45
2021/01/26 05:44:57;;;;;;;16.40;14.77;;;5.00;99.90;;;;;;4985471;28;21872;-42
2021/01/26 05:47:30;;;;;;;17.23;14.23;;;5.00;99.90;;;;;;4984166;28;20287;-45
2021/01/26 05:50:02;;;;;;;16.00;14.35;;;5.00;99.90;;;;;;4986664;28;20238;-43
2021/01/26 05:52:35;;;;;;;16.15;14.65;;;5.10;99.90;;;;;;4983164;28;20236;-42
2021/01/26 05:55:16;;;;;;;15.82;14.30;;;5.20;99.90;;;;;;4985027;28;20205;-45
2021/01/26 05:57:47;;;;;;;15.80;12.45;;;5.40;99.90;;;;;;4984100;28;20259;-42
2021/01/26 06:00:22;;;;;;;14.95;13.55;;;5.40;99.90;;;;;;4984940;28;20204;-42
2021/01/26 06:03:09;;;;;;;13.88;12.43;;;5.40;99.90;;;;;;4982648;28;20212;-44
2021/01/26 06:05:41;;;;;;;13.90;12.40;;;5.40;99.90;;;;;;4983364;28;20227;-42
2021/01/26 06:08:13;;;;;;;13.38;12.07;;;5.40;99.90;;;;;;4984058;28;20705;-42
2021/01/26 06:10:46;;;;;;;12.27;10.43;;;5.50;99.90;;;;;;4984528;28;20588;-47
2021/01/26 06:13:24;;;;;;;12.23;11.07;;;5.50;99.90;;;;;;4983154;28;20363;-47
2021/01/26 06:16:10;;;;;;;11.85;10.65;;;5.50;99.90;;;;;;4984759;28;20655;-42
2021/01/26 06:18:55;;;;;;;13.15;11.85;;;5.60;99.90;;;;;;4984667;28;20281;-46
2021/01/26 06:21:27;;;;;;;12.25;11.05;;;5.40;99.90;;;;;;4985396;28;20200;-43
2021/01/26 06:24:00;;;;;;;12.95;11.45;;;5.40;99.90;;;;;;4982505;28;20602;-43
2021/01/26 06:26:38;;;;;;;11.85;10.75;;;5.30;99.90;;;;;;4983217;28;20213;-41
2021/01/26 06:29:21;;;;;;;11.93;10.73;;;5.10;99.90;;;;;;4984726;28;20219;-43
2021/01/26 06:32:05;;;;;;;11.50;10.43;;;5.10;99.90;;;;;;4983709;28;20940;-42
2021/01/26 06:34:55;;;;;;;11.52;10.52;;;5.00;99.90;;;;;;4984753;28;20745;-42
2021/01/26 06:37:41;;;;;;;11.95;10.75;;;4.80;99.90;;;;;;4982998;28;20231;-45
2021/01/26 06:40:39;;;;;;;12.63;11.32;;;4.60;99.90;;;;;;4981311;28;20196;-43
2021/01/26 06:43:19;;;;;;;12.13;10.80;;;4.60;99.90;;;;;;4983468;28;20268;-42
2021/01/26 06:46:01;;;;;;;11.45;10.25;;;4.70;99.90;;;;;;4984158;28;20205;-45
2021/01/26 06:48:54;;;;;;;12.85;11.65;;;4.80;99.90;;;;;;4984298;28;20268;-42
2021/01/26 06:51:46;;;;;;;12.90;11.40;;;5.00;99.90;;;;;;4981658;28;20651;-42
2021/01/26 06:54:37;;;;;;;13.25;10.88;;;5.00;99.90;;;;;;4984309;28;20697;-44
2021/01/26 06:57:32;;;;;;;11.32;9.98;;;4.90;99.90;;;;;;4981880;28;20209;-44
2021/01/26 07:00:22;;;;;;;11.77;10.65;;;4.90;99.90;;;;;;4984460;28;20255;-43
2021/01/26 07:03:24;;;;;;;12.27;11.02;;;5.00;99.90;;;;;;4983493;28;20285;-45
2021/01/26 07:06:19;;;;;;;12.90;10.30;;;5.00;99.90;;;;;;4984584;28;20231;-45
2021/01/26 07:09:09;;;;;;;11.63;10.43;;;5.00;99.90;;;;;;4976650;28;20216;-42
2021/01/26 07:12:01;;;;;;;11.40;9.40;;;5.10;99.90;;;;;;4979925;28;20275;-43
2021/01/26 07:14:50;;;;;;;11.07;9.98;;;5.10;99.90;;;;;;4982269;28;20209;-45
2021/01/26 07:17:30;;;;;;;10.90;9.90;;;5.00;99.90;;;;;;4979220;28;20232;-42
2021/01/26 07:20:12;;;;;;;11.20;9.40;;;5.00;99.90;;;;;;4984293;28;20196;-42
2021/01/26 07:23:04;;;;;;;9.75;8.85;;;5.00;99.90;;;;;;4981965;28;20343;-41
2021/01/26 07:25:53;;;;;;;12.10;10.93;;;4.90;99.90;;;;;;4981145;28;20206;-41
2021/01/26 07:29:23;;;;;;;11.68;10.50;;;4.80;99.90;;;;;;4982022;28;20208;-41
2021/01/26 07:32:01;;;;;;;10.57;9.48;;;4.80;99.90;;;;;;4982910;28;20243;-42
2021/01/26 07:34:37;;;;;;;10.65;9.55;;;4.60;99.90;;;;;;4981991;28;20664;-41
2021/01/26 07:37:12;;;;;;;10.50;9.50;;;4.50;99.90;;;;;;4981429;28;20200;-41
2021/01/26 07:39:50;;;;;;;10.10;9.20;;;4.40;99.90;;;;;;4983770;28;20215;-44
2021/01/26 07:42:25;;;;;;;10.25;8.93;;;4.40;99.90;;;;;;4980172;28;20681;-42
2021/01/26 07:45:03;;;;;;;11.65;10.55;;;4.30;99.90;;;;;;4982568;28;20287;-41
2021/01/26 07:47:38;;;;;;;10.35;9.32;;;4.20;99.90;;;;;;4982117;28;20209;-42
2021/01/26 07:50:11;;;;;;;12.30;10.23;;;4.10;99.90;;;;;;4981729;28;20204;-43
2021/01/26 07:52:46;;;;;;;10.70;9.60;;;4.00;99.90;;;;;;4981982;28;20228;-42
2021/01/26 07:55:23;;;;;;;11.68;10.30;;;4.00;99.90;;;;;;4983510;28;20231;-41
2021/01/26 07:57:58;;;;;;;11.65;9.68;;;3.90;99.90;;;;;;4980638;28;20263;-41
2021/01/26 08:00:34;;;;;;;11.98;10.88;;;3.90;99.90;;;;;;4980893;28;20296;-41
2021/01/26 08:03:05;;;;;;;11.30;10.10;;;3.90;99.90;;;;;;4981119;28;20589;-45
2021/01/26 08:05:43;;;;;;;11.13;10.02;;;3.90;99.90;;;;;;4982767;28;20212;-44
2021/01/26 08:08:21;;;;;;;11.20;10.10;;;4.00;99.90;;;;;;4983362;28;20228;-43
2021/01/26 08:11:18;;;;;;;11.68;10.52;;;4.00;99.90;;;;;;4979442;28;20249;-41
2021/01/26 08:13:51;;;;;;;12.75;11.45;;;4.20;99.90;;;;;;4980220;28;20236;-44
2021/01/26 08:16:32;;;;;;;11.27;9.90;;;4.20;99.90;;;;;;4982884;28;20569;-45
2021/01/26 08:19:06;;;;;;;11.15;10.00;;;4.40;99.90;;;;;;4981184;28;20308;-42
2021/01/26 08:21:42;;;;;;;11.73;10.52;;;4.40;99.90;;;;;;4982916;28;20231;-43
2021/01/26 08:24:27;;;;;;;11.95;10.75;;;4.50;99.90;;;;;;4980374;28;20227;-41
2021/01/26 08:27:18;;;;;;;12.30;9.63;;;4.50;99.90;;;;;;4981803;28;20232;-41
2021/01/26 08:29:57;;;;;;;10.23;9.27;;;4.40;99.90;;;;;;4982963;28;20200;-41
2021/01/26 08:32:45;;;;;;;10.77;9.15;;;4.40;99.90;;;;;;4979913;28;20201;-40
2021/01/26 08:35:38;;;;;;;10.60;8.93;;;4.40;99.90;;;;;;4981970;28;20209;-41
2021/01/26 08:38:08;;;;;;;10.93;9.27;;;4.30;99.90;;;;;;4981044;28;20213;-41
2021/01/26 08:41:07;;;;;;;10.52;9.52;;;4.30;99.90;;;;;;4980632;28;20341;-41
2021/01/26 08:43:49;;;;;;;10.45;9.38;;;4.20;99.90;;;;;;4981118;28;20235;-40
2021/01/26 08:46:34;;;;;;;11.63;10.45;;;4.30;99.90;;;;;;4982373;28;20201;-42
2021/01/26 08:49:20;;;;;;;10.77;9.57;;;4.30;99.90;;;;;;4982141;28;20263;-40
2021/01/26 08:51:51;;;;;;;9.55;7.78;;;4.20;99.90;;;;;;4982495;28;20216;-40
2021/01/26 08:54:44;;;;;;;9.85;8.93;;;4.10;99.90;;;;;;4978851;28;20216;-40
2021/01/26 08:57:42;;;;;;;8.73;7.93;;;4.20;99.90;;;;;;4981035;28;20196;-41
2021/01/26 09:00:48;;;;;;;7.30;6.60;;;4.30;99.90;;;;;;4982900;28;20212;-41
2021/01/26 09:03:30;;;;;;;8.30;7.50;;;4.40;99.90;;;;;;4976338;28;20211;-40
2021/01/26 09:06:04;;;;;;;7.70;7.03;;;4.50;99.90;;;;;;4982432;28;20601;-40
2021/01/26 09:08:55;;;;;;;8.30;7.28;;;4.50;99.90;;;;;;4981005;28;20292;-42
2021/01/26 09:11:39;;;;;;;7.20;6.50;;;4.60;99.90;;;;;;4980568;28;20671;-41
2021/01/26 09:14:31;;;;;;;8.68;6.60;;;4.70;99.90;;;;;;4980343;28;20233;-41
2021/01/26 09:17:05;;;;;;;7.85;7.20;;;4.60;99.90;;;;;;4982036;28;20243;-41
2021/01/26 09:19:41;;;;;;;7.60;6.60;;;4.50;99.90;;;;;;4981535;28;20267;-41
2021/01/26 09:22:20;;;;;;;10.27;7.75;;;4.50;99.90;;;;;;4982340;28;20574;-41
2021/01/26 09:24:55;;;;;;;7.60;6.90;;;4.50;99.90;;;;;;4978077;28;20200;-41
2021/01/26 09:27:27;;;;;;;8.77;7.97;;;4.40;99.90;;;;;;4980713;28;20196;-40
2021/01/26 09:30:10;;;;;;;7.53;6.82;;;4.30;99.90;;;;;;4980013;28;20232;-41
2021/01/26 09:32:41;;;;;;;7.57;6.88;;;4.40;99.90;;;;;;4981244;28;20209;-40
2021/01/26 09:35:28;;;;;;;9.25;7.32;;;4.20;99.90;;;;;;4982380;28;20216;-40
2021/01/26 09:38:11;;;;;;;7.30;6.70;;;4.20;99.90;;;;;;4979787;28;20212;-40
2021/01/26 09:40:43;;;;;;;8.07;7.28;;;4.20;99.90;;;;;;4980324;28;20204;-40
2021/01/26 09:43:22;;;;;;;7.35;6.50;;;4.10;99.90;;;;;;4979780;28;20200;-39
2021/01/26 09:45:58;;;;;;;7.10;6.40;;;4.00;99.90;;;;;;4982391;28;20200;-40
2021/01/26 09:48:38;;;;;;;7.50;6.78;;;3.90;99.90;;;;;;4981580;28;20237;-40
2021/01/26 09:51:12;;;;;;;6.78;6.05;;;3.80;99.90;;;;;;4980453;28;20209;-39
2021/01/26 09:53:45;;;;;;;6.05;5.55;;;3.80;99.90;;;;;;4979711;28;20245;-39
2021/01/26 09:56:19;;;;;;;7.18;6.47;;;3.80;99.90;;;;;;4978604;28;20284;-40
2021/01/26 09:58:53;;;;;;;6.80;6.18;;;3.70;99.90;;;;;;4980444;28;20215;-39
2021/01/26 10:01:24;;;;;;;5.45;4.95;;;3.70;99.90;;;;;;4980974;28;20200;-39
2021/01/26 10:03:59;;;;;;;6.50;5.68;;;3.70;99.90;;;;;;4979688;28;20216;-40
2021/01/26 10:06:30;;;;;;;5.70;5.20;;;3.60;99.90;;;;;;4981515;28;20208;-40
2021/01/26 10:09:23;;;;;;;5.88;4.93;;;3.60;99.90;;;;;;4981378;28;20216;-40
2021/01/26 10:11:54;;;;;;;5.85;5.35;;;3.60;99.90;;;;;;4978826;28;20255;-39
2021/01/26 10:14:26;;;;;;;4.97;4.50;;;3.60;99.90;;;;;;4978881;28;20229;-40
2021/01/26 10:16:57;;;;;;;6.22;5.63;;;3.60;99.90;;;;;;4982947;28;20634;-40
2021/01/26 10:19:31;;;;;;;5.88;5.38;;;3.60;99.90;;;;;;4985336;28;20209;-39
2021/01/26 10:22:10;;;;;;;5.68;5.18;;;3.50;99.90;;;;;;4984871;28;20209;-39
2021/01/26 10:24:41;;;;;;;5.18;4.63;;;3.50;99.90;;;;;;4983295;28;20204;-39
2021/01/26 10:27:14;;;;;;;4.90;4.45;;;3.60;99.90;;;;;;4984273;28;20272;-39
2021/01/26 10:29:46;;;;;;;4.80;4.35;;;3.60;99.90;;;;;;4983624;28;20212;-39
2021/01/26 10:32:40;;;;;;;5.50;5.00;;;3.50;99.90;;;;;;4983931;28;20228;-40
2021/01/26 10:35:25;;;;;;;4.30;3.90;;;3.60;99.90;;;;;;4983250;28;20290;-40
2021/01/26 10:37:55;;;;;;;5.13;4.63;;;3.50;99.90;;;;;;4983081;28;20284;-40
2021/01/26 10:40:36;;;;;;;5.20;4.70;;;3.50;99.90;;;;;;4982629;28;20230;-40
2021/01/26 10:43:11;;;;;;;4.22;3.83;;;3.50;99.90;;;;;;4982617;28;20239;-40
2021/01/26 10:45:47;;;;;;;4.72;4.15;;;3.60;99.90;;;;;;4984170;28;20221;-40
2021/01/26 10:48:25;;;;;;;4.30;3.90;;;3.60;99.90;;;;;;4981578;28;20259;-40
2021/01/26 10:51:08;;;;;;;4.35;3.95;;;3.60;99.90;;;;;;4982144;28;20244;-39
2021/01/26 10:53:40;;;;;;;4.15;3.80;;;3.60;99.90;;;;;;4982263;28;20232;-39
2021/01/26 10:56:13;;;;;;;4.40;4.00;;;3.50;99.90;;;;;;4983489;28;20200;-39
2021/01/26 10:58:43;;;;;;;4.45;4.05;;;3.40;99.90;;;;;;4983023;28;20197;-39
2021/01/26 11:01:14;;;;;;;4.00;3.50;;;3.40;99.90;;;;;;4984304;28;20200;-40
2021/01/26 11:03:44;;;;;;;3.60;3.30;;;3.40;99.90;;;;;;4982372;28;20205;-40
2021/01/26 11:06:14;;;;;;;4.40;4.00;;;3.30;99.90;;;;;;4983032;28;20208;-39
2021/01/26 11:08:47;;;;;;;4.80;4.35;;;3.30;99.90;;;;;;4982342;28;20268;-39
2021/01/26 11:11:20;;;;;;;4.50;4.10;;;3.40;99.90;;;;;;4980811;28;20236;-40
2021/01/26 11:13:53;;;;;;;3.50;3.28;;;3.40;99.90;;;;;;4983826;28;20266;-40
2021/01/26 11:16:23;;;;;;;4.35;3.95;;;3.40;99.90;;;;;;4982258;28;20651;-39
2021/01/26 11:18:54;;;;;;;4.25;3.85;;;3.40;99.90;;;;;;4982101;28;20201;-39
2021/01/26 11:21:24;;;;;;;3.60;3.30;;;3.30;99.90;;;;;;4982024;28;20276;-39
2021/01/26 11:23:55;;;;;;;5.40;4.15;;;3.30;99.90;;;;;;4981277;28;20232;-39
2021/01/26 11:26:27;;;;;;;4.47;4.18;;;3.30;99.90;;;;;;4983515;28;20197;-40
2021/01/26 11:28:57;;;;;;;4.43;4.10;;;3.30;99.90;;;;;;4984526;28;20201;-40
2021/01/26 11:31:27;;;;;;;4.72;4.25;;;3.20;99.90;;;;;;4965741;28;20198;-40
2021/01/26 11:33:57;;;;;;;4.90;4.40;;;3.20;99.90;;;;;;4974844;28;20318;-40
2021/01/26 11:36:27;;;;;;;4.63;4.18;;;3.20;99.90;;;;;;4981190;28;20251;-39
2021/01/26 11:38:57;;;;;;;4.28;3.88;;;3.20;99.90;;;;;;4981081;28;20607;-39
2021/01/26 11:41:28;;;;;;;4.32;3.78;;;3.10;99.90;;;;;;4983471;28;20260;-39
2021/01/26 11:43:59;;;;;;;3.90;3.60;;;3.10;99.90;;;;;;4981156;28;20232;-39
2021/01/26 11:46:29;;;;;;;3.75;3.45;;;3.10;99.90;;;;;;4982132;28;20200;-39
2021/01/26 11:48:59;;;;;;;3.95;3.53;;;3.00;99.90;;;;;;4981733;28;20217;-39
2021/01/26 11:51:29;;;;;;;4.10;3.70;;;3.00;99.90;;;;;;4981389;28;20205;-39
2021/01/26 11:54:00;;;;;;;4.72;3.65;;;3.00;99.90;;;;;;4981199;28;20248;-39
2021/01/26 11:56:31;;;;;;;4.03;3.72;;;3.00;99.90;;;;;;4983046;28;20193;-39
2021/01/26 11:59:02;;;;;;;3.95;3.55;;;3.10;99.90;;;;;;4981080;28;20341;-39
2021/01/26 12:01:32;;;;;;;6.72;3.80;;;3.10;99.90;;;;;;4980401;28;20217;-39
2021/01/26 12:04:03;;;;;;;4.57;3.60;;;3.10;99.90;;;;;;4979757;28;20205;-39
2021/01/26 12:06:33;;;;;;;3.97;3.58;;;3.10;99.90;;;;;;4980503;28;20292;-39
2021/01/26 12:09:05;;;;;;;4.53;3.67;;;3.10;99.90;;;;;;4980131;28;20276;-39
2021/01/26 12:11:36;;;;;;;3.60;3.30;;;3.20;99.90;;;;;;4977873;28;20232;-39
2021/01/26 12:14:07;;;;;;;3.40;2.92;;;3.20;99.90;;;;;;4981858;28;20232;-39
2021/01/26 12:16:37;;;;;;;5.15;3.53;;;3.30;99.90;;;;;;4978632;28;20580;-39
2021/01/26 12:19:08;;;;;;;3.65;3.20;;;3.40;99.90;;;;;;4982926;28;20224;-39
2021/01/26 12:21:38;;;;;;;4.20;3.55;;;3.50;99.90;;;;;;4980402;28;20239;-39
2021/01/26 12:24:09;;;;;;;3.88;3.50;;;3.50;99.90;;;;;;4982112;28;20212;-38
2021/01/26 12:26:40;;;;;;;3.33;3.03;;;3.50;99.90;;;;;;4980067;28;20267;-39
2021/01/26 12:29:10;;;;;;;4.07;3.78;;;3.50;99.90;;;;;;4981696;28;20255;-39
2021/01/26 12:31:42;;;;;;;3.03;2.72;;;3.50;99.90;;;;;;4981741;28;20536;-38
2021/01/26 12:34:13;;;;;;;2.92;2.60;;;3.40;99.90;;;;;;4982066;28;20229;-39
2021/01/26 12:36:43;;;;;;;3.20;2.90;;;3.40;99.90;;;;;;4982123;28;20212;-39
2021/01/26 12:39:13;;;;;;;3.30;3.00;;;3.50;99.90;;;;;;4981981;28;20230;-39
2021/01/26 12:41:44;;;;;;;3.47;3.25;;;3.50;99.90;;;;;;4980293;28;20220;-39
2021/01/26 12:44:14;;;;;;;3.65;2.88;;;3.50;99.90;;;;;;4981651;28;20252;-39
2021/01/26 12:46:44;;;;;;;2.53;2.33;;;3.50;99.90;;;;;;4982060;28;20212;-39
2021/01/26 12:49:14;;;;;;;3.55;2.88;;;3.50;99.90;;;;;;4982830;28;20212;-39
2021/01/26 12:51:44;;;;;;;4.72;2.65;;;3.60;99.90;;;;;;4982204;28;20263;-39
2021/01/26 12:54:14;;;;;;;4.60;2.70;;;3.40;99.90;;;;;;4982058;28;20299;-39
2021/01/26 12:56:45;;;;;;;2.92;2.72;;;3.30;99.90;;;;;;4980833;28;20212;-39
2021/01/26 12:59:15;;;;;;;2.63;2.38;;;3.30;99.90;;;;;;4982633;28;20231;-39
2021/01/26 13:01:45;;;;;;;3.03;2.83;;;3.20;99.90;;;;;;4981934;28;20205;-39
2021/01/26 13:04:16;;;;;;;2.90;2.60;;;3.20;99.90;;;;;;4979680;28;20307;-39
2021/01/26 13:06:46;;;;;;;4.47;2.40;;;3.20;99.90;;;;;;4982594;28;20698;-39
2021/01/26 13:09:16;;;;;;;2.60;2.40;;;3.20;99.90;;;;;;4982351;28;20212;-39
2021/01/26 13:11:48;;;;;;;3.30;2.90;;;3.20;99.90;;;;;;4975940;28;20260;-39
2021/01/26 13:14:18;;;;;;;5.00;2.53;;;3.20;99.90;;;;;;4980211;28;20259;-39
2021/01/26 13:16:48;;;;;;;4.25;2.65;;;3.20;99.90;;;;;;4981671;28;20207;-40
2021/01/26 13:19:18;;;;;;;2.58;2.38;;;3.10;99.90;;;;;;4982771;28;20256;-39
2021/01/26 13:21:50;;;;;;;2.30;2.10;;;3.10;99.90;;;;;;4980576;28;20236;-39
2021/01/26 13:24:21;;;;;;;2.55;2.35;;;3.20;99.90;;;;;;4977583;28;20216;-39
2021/01/26 13:26:52;;;;;;;3.60;2.63;;;3.10;99.90;;;;;;4979587;28;20651;-39
2021/01/26 13:29:22;;;;;;;2.45;2.30;;;3.10;99.90;;;;;;4982118;28;20204;-39
2021/01/26 13:31:52;;;;;;;3.92;3.38;;;3.00;99.90;;;;;;4980878;28;20209;-39
2021/01/26 13:34:22;;;;;;;2.83;2.55;;;3.00;99.90;;;;;;4979366;28;20248;-40
2021/01/26 13:36:53;;;;;;;2.25;2.10;;;3.00;99.90;;;;;;4981851;28;20278;-39
2021/01/26 13:39:23;;;;;;;2.55;2.35;;;3.10;99.90;;;;;;4980855;28;20212;-39
2021/01/26 13:41:56;;;;;;;2.80;2.30;;;3.00;99.90;;;;;;4977772;28;20655;-39